sensor_id;sensor_type;location;lat;lon;timestamp;temperature;humidity
16578;DHT22;8401;52.528;13.340;2024-02-21T00:00:56;8.90;99.90
16578;DHT22;8401;52.528;13.340;2024-02-21T00:03:22;8.90;99.90
16578;DHT22;8401;52.528;13.340;2024-02-21T00:05:47;8.90;99.90
16578;DHT22;8401;52.528;13.340;2024-02-21T00:08:13;9.00;99.90
16578;DHT22;8401;52.528;13.340;2024-02-21T00:10:39;9.00;99.90
16578;DHT22;8401;52.528;13.340;2024-02-21T00:13:04;8.90;99.90
16578;DHT22;8401;52.528;13.340;2024-02-21T00:15:30;8.90;99.90
16578;DHT22;8401;52.528;13.340;2024-02-21T00:17:55;9.00;99.90
16578;DHT22;8401;52.528;13.340;2024-02-21T00:20:21;8.90;99.90
16578;DHT22;8401;52.528;13.340;2024-02-21T00:22:47;8.90;99.90
16578;DHT22;8401;52.528;13.340;2024-02-21T00:25:12;8.90;99.90
16578;DHT22;8401;52.528;13.340;2024-02-21T00:27:38;8.80;99.90
16578;DHT22;8401;52.528;13.340;2024-02-21T00:30:05;8.90;99.90
16578;DHT22;8401;52.528;13.340;2024-02-21T00:32:31;8.80;99.90
16578;DHT22;8401;52.528;13.340;2024-02-21T00:34:57;8.80;99.90
16578;DHT22;8401;52.528;13.340;2024-02-21T00:37:23;8.80;99.90
16578;DHT22;8401;52.528;13.340;2024-02-21T00:39:48;8.80;99.90
16578;DHT22;8401;52.528;13.340;2024-02-21T00:42:14;8.70;99.90
16578;DHT22;8401;52.528;13.340;2024-02-21T00:44:40;8.80;99.90
16578;DHT22;8401;52.528;13.340;2024-02-21T00:47:05;8.80;99.90
16578;DHT22;8401;52.528;13.340;2024-02-21T00:49:31;8.80;99.90
16578;DHT22;8401;52.528;13.340;2024-02-21T00:51:57;8.90;99.90
16578;DHT22;8401;52.528;13.340;2024-02-21T00:54:22;8.90;99.90
16578;DHT22;8401;52.528;13.340;2024-02-21T00:56:48;8.80;99.90
16578;DHT22;8401;52.528;13.340;2024-02-21T00:59:14;8.80;99.90
16578;DHT22;8401;52.528;13.340;2024-02-21T01:01:39;8.70;99.90
16578;DHT22;8401;52.528;13.340;2024-02-21T01:04:09;8.80;99.90
16578;DHT22;8401;52.528;13.340;2024-02-21T01:06:34;8.80;99.90
16578;DHT22;8401;52.528;13.340;2024-02-21T01:09:00;8.70;99.90
16578;DHT22;8401;52.528;13.340;2024-02-21T01:11:26;8.70;99.90
16578;DHT22;8401;52.528;13.340;2024-02-21T01:13:51;8.70;99.90
16578;DHT22;8401;52.528;13.340;2024-02-21T01:16:17;8.60;99.90
16578;DHT22;8401;52.528;13.340;2024-02-21T01:18:42;8.60;99.90
16578;DHT22;8401;52.528;13.340;2024-02-21T01:21:08;8.70;99.90
16578;DHT22;8401;52.528;13.340;2024-02-21T01:23:36;8.80;99.90
16578;DHT22;8401;52.528;13.340;2024-02-21T01:26:03;8.70;99.90
16578;DHT22;8401;52.528;13.340;2024-02-21T01:28:29;8.70;99.90
16578;DHT22;8401;52.528;13.340;2024-02-21T01:30:54;8.80;99.90
16578;DHT22;8401;52.528;13.340;2024-02-21T01:33:21;8.70;99.90
16578;DHT22;8401;52.528;13.340;2024-02-21T01:35:46;8.70;99.90
16578;DHT22;8401;52.528;13.340;2024-02-21T01:38:15;8.60;99.90
16578;DHT22;8401;52.528;13.340;2024-02-21T01:40:41;8.70;99.90
16578;DHT22;8401;52.528;13.340;2024-02-21T01:43:16;8.70;99.90
16578;DHT22;8401;52.528;13.340;2024-02-21T01:45:43;8.80;99.90
16578;DHT22;8401;52.528;13.340;2024-02-21T01:48:11;8.80;99.90
16578;DHT22;8401;52.528;13.340;2024-02-21T01:50:37;8.80;99.90
16578;DHT22;8401;52.528;13.340;2024-02-21T01:53:03;8.80;99.90
16578;DHT22;8401;52.528;13.340;2024-02-21T01:55:28;8.70;99.90
16578;DHT22;8401;52.528;13.340;2024-02-21T01:57:54;8.70;99.90
16578;DHT22;8401;52.528;13.340;2024-02-21T02:00:20;8.70;99.90
16578;DHT22;8401;52.528;13.340;2024-02-21T02:02:46;8.70;99.90
16578;DHT22;8401;52.528;13.340;2024-02-21T02:05:12;8.70;99.90
16578;DHT22;8401;52.528;13.340;2024-02-21T02:07:38;8.70;99.90
16578;DHT22;8401;52.528;13.340;2024-02-21T02:10:03;8.70;99.90
16578;DHT22;8401;52.528;13.340;2024-02-21T02:12:29;8.80;99.90
16578;DHT22;8401;52.528;13.340;2024-02-21T02:15:02;8.70;99.90
16578;DHT22;8401;52.528;13.340;2024-02-21T02:17:31;8.70;99.90
16578;DHT22;8401;52.528;13.340;2024-02-21T02:19:57;8.60;99.90
16578;DHT22;8401;52.528;13.340;2024-02-21T02:22:27;8.60;99.90
16578;DHT22;8401;52.528;13.340;2024-02-21T02:24:54;8.50;99.90
16578;DHT22;8401;52.528;13.340;2024-02-21T02:27:19;8.50;99.90
16578;DHT22;8401;52.528;13.340;2024-02-21T02:29:45;8.50;99.90
16578;DHT22;8401;52.528;13.340;2024-02-21T02:32:14;8.50;99.90
16578;DHT22;8401;52.528;13.340;2024-02-21T02:34:39;8.40;99.90
16578;DHT22;8401;52.528;13.340;2024-02-21T02:37:05;8.40;99.90
16578;DHT22;8401;52.528;13.340;2024-02-21T02:39:31;8.40;99.90
16578;DHT22;8401;52.528;13.340;2024-02-21T02:41:56;8.30;99.90
16578;DHT22;8401;52.528;13.340;2024-02-21T02:44:22;8.30;99.90
16578;DHT22;8401;52.528;13.340;2024-02-21T02:46:48;8.20;99.90
16578;DHT22;8401;52.528;13.340;2024-02-21T02:49:13;8.30;99.90
16578;DHT22;8401;52.528;13.340;2024-02-21T02:51:42;8.20;99.90
16578;DHT22;8401;52.528;13.340;2024-02-21T02:54:09;8.20;99.90
16578;DHT22;8401;52.528;13.340;2024-02-21T02:56:34;8.20;99.90
16578;DHT22;8401;52.528;13.340;2024-02-21T02:59:00;8.10;99.90
16578;DHT22;8401;52.528;13.340;2024-02-21T03:01:26;8.10;99.90
16578;DHT22;8401;52.528;13.340;2024-02-21T03:03:52;8.10;99.90
16578;DHT22;8401;52.528;13.340;2024-02-21T03:06:19;8.10;99.90
16578;DHT22;8401;52.528;13.340;2024-02-21T03:08:44;8.10;99.90
16578;DHT22;8401;52.528;13.340;2024-02-21T03:11:10;8.00;99.90
16578;DHT22;8401;52.528;13.340;2024-02-21T03:13:36;7.90;99.90
16578;DHT22;8401;52.528;13.340;2024-02-21T03:16:02;7.90;99.90
16578;DHT22;8401;52.528;13.340;2024-02-21T03:18:28;7.90;99.90
16578;DHT22;8401;52.528;13.340;2024-02-21T03:20:53;8.00;99.90
16578;DHT22;8401;52.528;13.340;2024-02-21T03:23:19;8.00;99.90
16578;DHT22;8401;52.528;13.340;2024-02-21T03:25:45;8.00;99.90
16578;DHT22;8401;52.528;13.340;2024-02-21T03:28:11;7.90;99.90
16578;DHT22;8401;52.528;13.340;2024-02-21T03:30:36;7.90;99.90
16578;DHT22;8401;52.528;13.340;2024-02-21T03:33:02;7.90;99.90
16578;DHT22;8401;52.528;13.340;2024-02-21T03:35:28;7.90;99.90
16578;DHT22;8401;52.528;13.340;2024-02-21T03:37:54;7.90;99.90
16578;DHT22;8401;52.528;13.340;2024-02-21T03:40:20;7.80;99.90
16578;DHT22;8401;52.528;13.340;2024-02-21T03:42:45;7.80;99.90
16578;DHT22;8401;52.528;13.340;2024-02-21T03:45:11;7.70;99.90
16578;DHT22;8401;52.528;13.340;2024-02-21T03:47:36;7.70;99.90
16578;DHT22;8401;52.528;13.340;2024-02-21T03:50:02;7.70;99.90
16578;DHT22;8401;52.528;13.340;2024-02-21T03:52:28;7.70;99.90
16578;DHT22;8401;52.528;13.340;2024-02-21T03:54:53;7.70;99.90
16578;DHT22;8401;52.528;13.340;2024-02-21T03:57:20;7.60;99.90
16578;DHT22;8401;52.528;13.340;2024-02-21T03:59:46;7.60;99.90
16578;DHT22;8401;52.528;13.340;2024-02-21T04:02:15;7.70;99.90
16578;DHT22;8401;52.528;13.340;2024-02-21T04:04:43;7.70;99.90
16578;DHT22;8401;52.528;13.340;2024-02-21T04:07:12;7.70;99.90
16578;DHT22;8401;52.528;13.340;2024-02-21T04:09:37;7.70;99.90
16578;DHT22;8401;52.528;13.340;2024-02-21T04:12:03;7.70;99.90
16578;DHT22;8401;52.528;13.340;2024-02-21T04:14:29;7.80;99.90
16578;DHT22;8401;52.528;13.340;2024-02-21T04:16:55;7.70;99.90
16578;DHT22;8401;52.528;13.340;2024-02-21T04:19:20;7.70;99.90
16578;DHT22;8401;52.528;13.340;2024-02-21T04:21:46;7.70;99.90
16578;DHT22;8401;52.528;13.340;2024-02-21T04:24:11;7.80;99.90
16578;DHT22;8401;52.528;13.340;2024-02-21T04:26:37;7.80;99.90
16578;DHT22;8401;52.528;13.340;2024-02-21T04:29:03;7.90;99.90
16578;DHT22;8401;52.528;13.340;2024-02-21T04:31:28;7.90;99.90
16578;DHT22;8401;52.528;13.340;2024-02-21T04:33:54;7.90;99.90
16578;DHT22;8401;52.528;13.340;2024-02-21T04:36:19;8.00;99.90
16578;DHT22;8401;52.528;13.340;2024-02-21T04:38:45;8.00;99.90
16578;DHT22;8401;52.528;13.340;2024-02-21T04:41:11;8.00;99.90
16578;DHT22;8401;52.528;13.340;2024-02-21T04:43:36;7.90;99.90
16578;DHT22;8401;52.528;13.340;2024-02-21T04:46:02;8.00;99.90
16578;DHT22;8401;52.528;13.340;2024-02-21T04:48:27;8.00;99.90
16578;DHT22;8401;52.528;13.340;2024-02-21T04:50:54;8.00;99.90
16578;DHT22;8401;52.528;13.340;2024-02-21T04:53:19;8.00;99.90
16578;DHT22;8401;52.528;13.340;2024-02-21T04:55:45;8.00;99.90
16578;DHT22;8401;52.528;13.340;2024-02-21T04:58:11;8.00;99.90
16578;DHT22;8401;52.528;13.340;2024-02-21T05:00:36;8.00;99.90
16578;DHT22;8401;52.528;13.340;2024-02-21T05:03:02;8.10;99.90
16578;DHT22;8401;52.528;13.340;2024-02-21T05:05:28;8.00;99.90
16578;DHT22;8401;52.528;13.340;2024-02-21T05:07:53;8.00;99.90
16578;DHT22;8401;52.528;13.340;2024-02-21T05:10:19;8.00;99.90
16578;DHT22;8401;52.528;13.340;2024-02-21T05:12:45;8.00;99.90
16578;DHT22;8401;52.528;13.340;2024-02-21T05:15:11;7.90;99.90
16578;DHT22;8401;52.528;13.340;2024-02-21T05:17:37;7.90;99.90
16578;DHT22;8401;52.528;13.340;2024-02-21T05:20:03;8.00;99.90
16578;DHT22;8401;52.528;13.340;2024-02-21T05:22:29;7.90;99.90
16578;DHT22;8401;52.528;13.340;2024-02-21T05:24:54;8.00;99.90
16578;DHT22;8401;52.528;13.340;2024-02-21T05:27:20;8.10;99.90
16578;DHT22;8401;52.528;13.340;2024-02-21T05:29:46;8.10;99.90
16578;DHT22;8401;52.528;13.340;2024-02-21T05:32:13;8.00;99.90
16578;DHT22;8401;52.528;13.340;2024-02-21T05:34:39;8.00;99.90
16578;DHT22;8401;52.528;13.340;2024-02-21T05:37:05;8.00;99.90
16578;DHT22;8401;52.528;13.340;2024-02-21T05:39:30;8.00;99.90
16578;DHT22;8401;52.528;13.340;2024-02-21T05:41:56;8.10;99.90
16578;DHT22;8401;52.528;13.340;2024-02-21T05:44:22;8.10;99.90
16578;DHT22;8401;52.528;13.340;2024-02-21T05:46:47;8.00;99.90
16578;DHT22;8401;52.528;13.340;2024-02-21T05:49:13;8.00;99.90
16578;DHT22;8401;52.528;13.340;2024-02-21T05:51:39;8.10;99.90
16578;DHT22;8401;52.528;13.340;2024-02-21T05:54:05;8.10;99.90
16578;DHT22;8401;52.528;13.340;2024-02-21T05:56:32;8.10;99.90
16578;DHT22;8401;52.528;13.340;2024-02-21T05:58:58;8.10;99.90
16578;DHT22;8401;52.528;13.340;2024-02-21T06:01:24;8.10;99.90
16578;DHT22;8401;52.528;13.340;2024-02-21T06:03:49;8.10;99.90
16578;DHT22;8401;52.528;13.340;2024-02-21T06:06:15;8.10;99.90
16578;DHT22;8401;52.528;13.340;2024-02-21T06:08:41;8.10;99.90
16578;DHT22;8401;52.528;13.340;2024-02-21T06:11:07;8.20;99.90
16578;DHT22;8401;52.528;13.340;2024-02-21T06:13:32;8.10;99.90
16578;DHT22;8401;52.528;13.340;2024-02-21T06:15:58;8.00;99.90
16578;DHT22;8401;52.528;13.340;2024-02-21T06:18:23;8.10;99.90
16578;DHT22;8401;52.528;13.340;2024-02-21T06:20:49;8.10;99.90
16578;DHT22;8401;52.528;13.340;2024-02-21T06:23:18;8.20;99.90
16578;DHT22;8401;52.528;13.340;2024-02-21T06:25:43;8.20;99.90
16578;DHT22;8401;52.528;13.340;2024-02-21T06:28:09;8.20;99.90
16578;DHT22;8401;52.528;13.340;2024-02-21T06:30:35;8.20;99.90
16578;DHT22;8401;52.528;13.340;2024-02-21T06:33:01;8.20;99.90
16578;DHT22;8401;52.528;13.340;2024-02-21T06:35:28;8.20;99.90
16578;DHT22;8401;52.528;13.340;2024-02-21T06:37:54;8.30;99.90
16578;DHT22;8401;52.528;13.340;2024-02-21T06:40:23;8.30;99.90
16578;DHT22;8401;52.528;13.340;2024-02-21T06:42:49;8.30;99.90
16578;DHT22;8401;52.528;13.340;2024-02-21T06:45:15;8.20;99.90
16578;DHT22;8401;52.528;13.340;2024-02-21T06:47:41;8.30;99.90
16578;DHT22;8401;52.528;13.340;2024-02-21T06:50:07;8.40;99.90
16578;DHT22;8401;52.528;13.340;2024-02-21T06:52:34;8.40;99.90
16578;DHT22;8401;52.528;13.340;2024-02-21T06:55:00;8.40;99.90
16578;DHT22;8401;52.528;13.340;2024-02-21T06:57:27;8.40;99.90
16578;DHT22;8401;52.528;13.340;2024-02-21T06:59:53;8.40;99.90
16578;DHT22;8401;52.528;13.340;2024-02-21T07:02:19;8.40;99.90
16578;DHT22;8401;52.528;13.340;2024-02-21T07:04:44;8.40;99.90
16578;DHT22;8401;52.528;13.340;2024-02-21T07:07:10;8.40;99.90
16578;DHT22;8401;52.528;13.340;2024-02-21T07:09:36;8.40;99.90
16578;DHT22;8401;52.528;13.340;2024-02-21T07:12:01;8.40;99.90
16578;DHT22;8401;52.528;13.340;2024-02-21T07:14:31;8.40;99.90
16578;DHT22;8401;52.528;13.340;2024-02-21T07:16:57;8.40;99.90
16578;DHT22;8401;52.528;13.340;2024-02-21T07:19:23;8.40;99.90
16578;DHT22;8401;52.528;13.340;2024-02-21T07:21:49;8.40;99.90
16578;DHT22;8401;52.528;13.340;2024-02-21T07:24:14;8.40;99.90
16578;DHT22;8401;52.528;13.340;2024-02-21T07:26:44;8.50;99.90
16578;DHT22;8401;52.528;13.340;2024-02-21T07:29:09;8.50;99.90
16578;DHT22;8401;52.528;13.340;2024-02-21T07:31:43;8.50;99.90
16578;DHT22;8401;52.528;13.340;2024-02-21T07:34:09;8.50;99.90
16578;DHT22;8401;52.528;13.340;2024-02-21T07:36:35;8.60;99.90
16578;DHT22;8401;52.528;13.340;2024-02-21T07:39:00;8.60;99.90
16578;DHT22;8401;52.528;13.340;2024-02-21T07:41:26;8.70;99.90
16578;DHT22;8401;52.528;13.340;2024-02-21T07:43:54;8.70;99.90
16578;DHT22;8401;52.528;13.340;2024-02-21T07:46:19;8.60;99.90
16578;DHT22;8401;52.528;13.340;2024-02-21T07:48:48;8.60;99.90
16578;DHT22;8401;52.528;13.340;2024-02-21T07:51:14;8.60;99.90
16578;DHT22;8401;52.528;13.340;2024-02-21T07:53:42;8.60;99.90
16578;DHT22;8401;52.528;13.340;2024-02-21T07:56:11;8.70;99.90
16578;DHT22;8401;52.528;13.340;2024-02-21T07:58:36;8.70;99.90
16578;DHT22;8401;52.528;13.340;2024-02-21T08:01:02;8.80;99.90
16578;DHT22;8401;52.528;13.340;2024-02-21T08:03:27;8.80;99.90
16578;DHT22;8401;52.528;13.340;2024-02-21T08:05:53;8.70;99.90
16578;DHT22;8401;52.528;13.340;2024-02-21T08:08:19;8.80;99.90
16578;DHT22;8401;52.528;13.340;2024-02-21T08:10:46;8.70;99.90
16578;DHT22;8401;52.528;13.340;2024-02-21T08:13:12;8.80;99.90
16578;DHT22;8401;52.528;13.340;2024-02-21T08:15:38;8.80;99.90
16578;DHT22;8401;52.528;13.340;2024-02-21T08:18:05;8.70;99.90
16578;DHT22;8401;52.528;13.340;2024-02-21T08:20:31;8.70;99.90
16578;DHT22;8401;52.528;13.340;2024-02-21T08:22:56;8.60;99.90
16578;DHT22;8401;52.528;13.340;2024-02-21T08:25:22;8.60;99.90
16578;DHT22;8401;52.528;13.340;2024-02-21T08:27:47;8.70;99.90
16578;DHT22;8401;52.528;13.340;2024-02-21T08:30:13;8.70;99.90
16578;DHT22;8401;52.528;13.340;2024-02-21T08:32:39;8.70;99.90
16578;DHT22;8401;52.528;13.340;2024-02-21T08:35:05;8.70;99.90
16578;DHT22;8401;52.528;13.340;2024-02-21T08:37:31;8.80;99.90
16578;DHT22;8401;52.528;13.340;2024-02-21T08:39:56;8.80;99.90
16578;DHT22;8401;52.528;13.340;2024-02-21T08:42:22;8.90;99.90
16578;DHT22;8401;52.528;13.340;2024-02-21T08:44:47;8.90;99.90
16578;DHT22;8401;52.528;13.340;2024-02-21T08:47:13;9.00;99.90
16578;DHT22;8401;52.528;13.340;2024-02-21T08:49:39;9.00;99.90
16578;DHT22;8401;52.528;13.340;2024-02-21T08:52:05;9.10;99.90
16578;DHT22;8401;52.528;13.340;2024-02-21T08:54:31;9.00;99.90
16578;DHT22;8401;52.528;13.340;2024-02-21T08:56:58;9.20;99.90
16578;DHT22;8401;52.528;13.340;2024-02-21T08:59:23;9.20;99.90
16578;DHT22;8401;52.528;13.340;2024-02-21T09:01:50;9.30;99.90
16578;DHT22;8401;52.528;13.340;2024-02-21T09:04:17;9.40;99.90
16578;DHT22;8401;52.528;13.340;2024-02-21T09:06:43;9.30;99.90
16578;DHT22;8401;52.528;13.340;2024-02-21T09:09:09;9.30;99.90
16578;DHT22;8401;52.528;13.340;2024-02-21T09:11:35;9.30;99.90
16578;DHT22;8401;52.528;13.340;2024-02-21T09:14:00;9.30;99.90
16578;DHT22;8401;52.528;13.340;2024-02-21T09:16:26;9.40;99.90
16578;DHT22;8401;52.528;13.340;2024-02-21T09:18:52;9.40;99.90
16578;DHT22;8401;52.528;13.340;2024-02-21T09:21:18;9.30;99.90
16578;DHT22;8401;52.528;13.340;2024-02-21T09:23:44;9.40;99.90
16578;DHT22;8401;52.528;13.340;2024-02-21T09:26:10;9.40;99.90
16578;DHT22;8401;52.528;13.340;2024-02-21T09:28:39;9.40;99.90
16578;DHT22;8401;52.528;13.340;2024-02-21T09:31:05;9.40;99.90
16578;DHT22;8401;52.528;13.340;2024-02-21T09:33:30;9.40;99.90
16578;DHT22;8401;52.528;13.340;2024-02-21T09:35:56;9.50;99.90
16578;DHT22;8401;52.528;13.340;2024-02-21T09:38:22;9.50;99.90
16578;DHT22;8401;52.528;13.340;2024-02-21T09:40:51;9.50;99.90
16578;DHT22;8401;52.528;13.340;2024-02-21T09:43:19;9.60;99.90
16578;DHT22;8401;52.528;13.340;2024-02-21T09:45:46;9.60;99.90
16578;DHT22;8401;52.528;13.340;2024-02-21T09:48:39;9.70;99.90
16578;DHT22;8401;52.528;13.340;2024-02-21T09:51:09;9.70;99.90
16578;DHT22;8401;52.528;13.340;2024-02-21T09:53:37;9.80;99.90
16578;DHT22;8401;52.528;13.340;2024-02-21T09:56:05;9.80;99.90
16578;DHT22;8401;52.528;13.340;2024-02-21T09:58:33;9.80;99.90
16578;DHT22;8401;52.528;13.340;2024-02-21T10:00:59;9.80;99.90
16578;DHT22;8401;52.528;13.340;2024-02-21T10:03:26;9.80;99.90
16578;DHT22;8401;52.528;13.340;2024-02-21T10:05:51;10.00;99.90
16578;DHT22;8401;52.528;13.340;2024-02-21T10:08:18;9.90;99.90
16578;DHT22;8401;52.528;13.340;2024-02-21T10:10:45;9.90;99.90
16578;DHT22;8401;52.528;13.340;2024-02-21T10:13:25;9.90;99.90
16578;DHT22;8401;52.528;13.340;2024-02-21T10:16:06;9.90;99.90
16578;DHT22;8401;52.528;13.340;2024-02-21T10:18:35;10.00;99.90
16578;DHT22;8401;52.528;13.340;2024-02-21T10:21:05;10.10;99.90
16578;DHT22;8401;52.528;13.340;2024-02-21T10:23:44;10.10;99.90
16578;DHT22;8401;52.528;13.340;2024-02-21T10:26:10;10.00;99.90
16578;DHT22;8401;52.528;13.340;2024-02-21T10:28:39;10.10;99.90
16578;DHT22;8401;52.528;13.340;2024-02-21T10:31:31;10.20;99.90
16578;DHT22;8401;52.528;13.340;2024-02-21T10:33:59;10.10;99.90
16578;DHT22;8401;52.528;13.340;2024-02-21T10:36:25;10.20;99.90
16578;DHT22;8401;52.528;13.340;2024-02-21T10:38:52;10.20;99.90
16578;DHT22;8401;52.528;13.340;2024-02-21T10:41:20;10.10;99.90
16578;DHT22;8401;52.528;13.340;2024-02-21T10:43:51;10.10;99.90
16578;DHT22;8401;52.528;13.340;2024-02-21T10:46:19;10.20;99.90
16578;DHT22;8401;52.528;13.340;2024-02-21T10:48:46;10.20;99.90
16578;DHT22;8401;52.528;13.340;2024-02-21T10:51:20;10.10;99.90
16578;DHT22;8401;52.528;13.340;2024-02-21T10:56:35;10.10;99.90
16578;DHT22;8401;52.528;13.340;2024-02-21T10:59:05;10.00;99.90
16578;DHT22;8401;52.528;13.340;2024-02-21T11:01:30;10.00;99.90
16578;DHT22;8401;52.528;13.340;2024-02-21T11:04:10;9.90;99.90
16578;DHT22;8401;52.528;13.340;2024-02-21T11:06:38;9.80;99.90
16578;DHT22;8401;52.528;13.340;2024-02-21T11:09:09;9.80;99.90
16578;DHT22;8401;52.528;13.340;2024-02-21T11:11:38;9.90;99.90
16578;DHT22;8401;52.528;13.340;2024-02-21T11:14:11;10.20;99.90
16578;DHT22;8401;52.528;13.340;2024-02-21T11:16:41;10.50;99.90
16578;DHT22;8401;52.528;13.340;2024-02-21T11:19:20;10.80;99.90
16578;DHT22;8401;52.528;13.340;2024-02-21T11:21:47;11.40;99.90
16578;DHT22;8401;52.528;13.340;2024-02-21T11:24:32;11.50;99.90
16578;DHT22;8401;52.528;13.340;2024-02-21T11:27:16;12.10;99.90
16578;DHT22;8401;52.528;13.340;2024-02-21T11:29:49;12.20;99.90
16578;DHT22;8401;52.528;13.340;2024-02-21T11:32:20;12.10;99.90
16578;DHT22;8401;52.528;13.340;2024-02-21T11:34:56;12.10;99.90
16578;DHT22;8401;52.528;13.340;2024-02-21T11:37:25;12.80;99.90
16578;DHT22;8401;52.528;13.340;2024-02-21T11:39:51;12.50;99.90
16578;DHT22;8401;52.528;13.340;2024-02-21T11:42:18;12.30;99.90
16578;DHT22;8401;52.528;13.340;2024-02-21T11:44:44;12.30;99.90
16578;DHT22;8401;52.528;13.340;2024-02-21T11:47:10;12.60;99.90
16578;DHT22;8401;52.528;13.340;2024-02-21T11:49:44;12.30;99.90
16578;DHT22;8401;52.528;13.340;2024-02-21T11:52:11;11.90;99.90
16578;DHT22;8401;52.528;13.340;2024-02-21T11:54:36;12.00;99.90
16578;DHT22;8401;52.528;13.340;2024-02-21T11:57:02;12.10;99.90
16578;DHT22;8401;52.528;13.340;2024-02-21T11:59:33;12.90;99.90
16578;DHT22;8401;52.528;13.340;2024-02-21T12:02:00;13.10;99.90
16578;DHT22;8401;52.528;13.340;2024-02-21T12:04:26;12.60;99.90
16578;DHT22;8401;52.528;13.340;2024-02-21T12:06:53;12.40;99.90
16578;DHT22;8401;52.528;13.340;2024-02-21T12:09:19;12.20;99.90
16578;DHT22;8401;52.528;13.340;2024-02-21T12:11:45;12.20;99.90
16578;DHT22;8401;52.528;13.340;2024-02-21T12:14:16;12.10;99.90
16578;DHT22;8401;52.528;13.340;2024-02-21T12:16:42;12.10;99.90
16578;DHT22;8401;52.528;13.340;2024-02-21T12:19:10;12.20;99.90
16578;DHT22;8401;52.528;13.340;2024-02-21T12:21:35;12.30;99.90
16578;DHT22;8401;52.528;13.340;2024-02-21T12:24:34;12.50;99.90
16578;DHT22;8401;52.528;13.340;2024-02-21T12:27:01;12.50;99.90
16578;DHT22;8401;52.528;13.340;2024-02-21T12:29:29;12.20;99.90
16578;DHT22;8401;52.528;13.340;2024-02-21T12:31:55;12.30;99.90
16578;DHT22;8401;52.528;13.340;2024-02-21T12:34:21;12.40;99.90
16578;DHT22;8401;52.528;13.340;2024-02-21T12:36:48;12.30;99.90
16578;DHT22;8401;52.528;13.340;2024-02-21T12:39:14;12.20;99.90
16578;DHT22;8401;52.528;13.340;2024-02-21T12:41:40;12.10;99.90
16578;DHT22;8401;52.528;13.340;2024-02-21T12:44:07;12.00;99.90
16578;DHT22;8401;52.528;13.340;2024-02-21T12:46:35;11.90;99.90
16578;DHT22;8401;52.528;13.340;2024-02-21T12:49:01;11.80;99.90
16578;DHT22;8401;52.528;13.340;2024-02-21T12:51:28;11.80;99.90
16578;DHT22;8401;52.528;13.340;2024-02-21T12:53:54;11.80;99.90
16578;DHT22;8401;52.528;13.340;2024-02-21T12:56:20;11.70;99.90
16578;DHT22;8401;52.528;13.340;2024-02-21T12:58:45;11.80;99.90
16578;DHT22;8401;52.528;13.340;2024-02-21T13:01:11;11.80;99.90
16578;DHT22;8401;52.528;13.340;2024-02-21T13:03:37;11.90;99.90
16578;DHT22;8401;52.528;13.340;2024-02-21T13:06:03;11.80;99.90
16578;DHT22;8401;52.528;13.340;2024-02-21T13:08:29;11.90;99.90
16578;DHT22;8401;52.528;13.340;2024-02-21T13:10:55;11.90;99.90
16578;DHT22;8401;52.528;13.340;2024-02-21T13:13:20;11.90;99.90
16578;DHT22;8401;52.528;13.340;2024-02-21T13:15:46;11.90;99.90
16578;DHT22;8401;52.528;13.340;2024-02-21T13:18:12;12.00;99.90
16578;DHT22;8401;52.528;13.340;2024-02-21T13:20:38;12.10;99.90
16578;DHT22;8401;52.528;13.340;2024-02-21T13:23:03;12.00;99.90
16578;DHT22;8401;52.528;13.340;2024-02-21T13:25:29;12.00;99.90
16578;DHT22;8401;52.528;13.340;2024-02-21T13:27:55;12.20;99.90
16578;DHT22;8401;52.528;13.340;2024-02-21T13:30:22;12.30;99.90
16578;DHT22;8401;52.528;13.340;2024-02-21T13:32:47;12.30;99.90
16578;DHT22;8401;52.528;13.340;2024-02-21T13:35:13;12.20;99.90
16578;DHT22;8401;52.528;13.340;2024-02-21T13:37:40;12.30;99.90
16578;DHT22;8401;52.528;13.340;2024-02-21T13:40:06;12.20;99.90
16578;DHT22;8401;52.528;13.340;2024-02-21T13:42:34;12.10;99.90
16578;DHT22;8401;52.528;13.340;2024-02-21T13:45:00;12.00;99.90
16578;DHT22;8401;52.528;13.340;2024-02-21T13:47:26;12.00;99.90
16578;DHT22;8401;52.528;13.340;2024-02-21T13:49:52;12.00;99.90
16578;DHT22;8401;52.528;13.340;2024-02-21T13:52:17;11.80;99.90
16578;DHT22;8401;52.528;13.340;2024-02-21T13:54:46;11.80;99.90
16578;DHT22;8401;52.528;13.340;2024-02-21T13:57:12;11.80;99.90
16578;DHT22;8401;52.528;13.340;2024-02-21T13:59:38;11.80;99.90
16578;DHT22;8401;52.528;13.340;2024-02-21T14:02:05;11.80;99.90
16578;DHT22;8401;52.528;13.340;2024-02-21T14:04:32;12.00;99.90
16578;DHT22;8401;52.528;13.340;2024-02-21T14:06:58;12.00;99.90
16578;DHT22;8401;52.528;13.340;2024-02-21T14:09:23;12.10;99.90
16578;DHT22;8401;52.528;13.340;2024-02-21T14:11:49;12.20;99.90
16578;DHT22;8401;52.528;13.340;2024-02-21T14:14:15;12.00;99.90
16578;DHT22;8401;52.528;13.340;2024-02-21T14:16:41;12.00;99.90
16578;DHT22;8401;52.528;13.340;2024-02-21T14:19:06;12.00;99.90
16578;DHT22;8401;52.528;13.340;2024-02-21T14:21:34;12.00;99.90
16578;DHT22;8401;52.528;13.340;2024-02-21T14:24:05;12.00;99.90
16578;DHT22;8401;52.528;13.340;2024-02-21T14:26:31;12.00;99.90
16578;DHT22;8401;52.528;13.340;2024-02-21T14:28:57;11.90;99.90
16578;DHT22;8401;52.528;13.340;2024-02-21T14:31:23;12.00;99.90
16578;DHT22;8401;52.528;13.340;2024-02-21T14:33:49;11.90;99.90
16578;DHT22;8401;52.528;13.340;2024-02-21T14:36:14;12.00;99.90
16578;DHT22;8401;52.528;13.340;2024-02-21T14:38:44;12.20;99.90
16578;DHT22;8401;52.528;13.340;2024-02-21T14:41:12;12.20;99.90
16578;DHT22;8401;52.528;13.340;2024-02-21T14:43:38;12.30;99.90
16578;DHT22;8401;52.528;13.340;2024-02-21T14:46:04;12.20;99.90
16578;DHT22;8401;52.528;13.340;2024-02-21T14:48:33;12.20;99.90
16578;DHT22;8401;52.528;13.340;2024-02-21T14:50:59;12.20;99.90
16578;DHT22;8401;52.528;13.340;2024-02-21T14:53:25;12.20;99.90
16578;DHT22;8401;52.528;13.340;2024-02-21T14:55:50;12.20;99.90
16578;DHT22;8401;52.528;13.340;2024-02-21T14:58:19;12.20;99.90
16578;DHT22;8401;52.528;13.340;2024-02-21T15:00:45;12.30;99.90
16578;DHT22;8401;52.528;13.340;2024-02-21T15:03:12;12.30;99.90
16578;DHT22;8401;52.528;13.340;2024-02-21T15:05:42;12.30;99.90
16578;DHT22;8401;52.528;13.340;2024-02-21T15:08:07;12.20;99.90
16578;DHT22;8401;52.528;13.340;2024-02-21T15:10:35;12.00;99.90
16578;DHT22;8401;52.528;13.340;2024-02-21T15:13:01;12.00;99.90
16578;DHT22;8401;52.528;13.340;2024-02-21T15:15:26;12.00;99.90
16578;DHT22;8401;52.528;13.340;2024-02-21T15:17:52;11.90;99.90
16578;DHT22;8401;52.528;13.340;2024-02-21T15:20:18;12.00;99.90
16578;DHT22;8401;52.528;13.340;2024-02-21T15:22:43;12.00;99.90
16578;DHT22;8401;52.528;13.340;2024-02-21T15:25:09;11.90;99.90
16578;DHT22;8401;52.528;13.340;2024-02-21T15:27:43;11.80;99.90
16578;DHT22;8401;52.528;13.340;2024-02-21T15:30:13;11.70;99.90
16578;DHT22;8401;52.528;13.340;2024-02-21T15:32:39;11.80;99.90
16578;DHT22;8401;52.528;13.340;2024-02-21T15:35:05;11.80;99.90
16578;DHT22;8401;52.528;13.340;2024-02-21T15:37:35;11.70;99.90
16578;DHT22;8401;52.528;13.340;2024-02-21T15:40:01;11.60;99.90